createdAt,value
2023-05-04T00:01:57.253Z,9.13
2023-05-04T00:07:00.965Z,11.37
2023-05-04T00:12:05.272Z,15.63
2023-05-04T00:17:09.485Z,10.00
2023-05-04T00:22:11.364Z,8.27
2023-05-04T00:27:15.340Z,11.20
2023-05-04T00:32:17.041Z,7.63
2023-05-04T00:37:18.977Z,7.87
2023-05-04T00:42:20.664Z,12.33
2023-05-04T00:47:25.301Z,10.13
2023-05-04T00:52:29.653Z,16.23
2023-05-04T00:57:33.664Z,14.13
2023-05-04T01:02:37.666Z,13.40
2023-05-04T01:07:51.417Z,10.70
2023-05-04T01:13:10.140Z,14.50
2023-05-04T01:18:14.381Z,11.33
2023-05-04T01:23:16.618Z,16.47
2023-05-04T01:28:39.268Z,17.10
2023-05-04T01:33:43.769Z,12.13
2023-05-04T01:38:52.308Z,12.80
2023-05-04T01:43:54.408Z,12.53
2023-05-04T01:48:58.449Z,15.07
2023-05-04T01:54:00.306Z,17.57
2023-05-04T01:59:04.322Z,15.70
2023-05-04T02:04:06.191Z,15.77
2023-05-04T02:09:08.091Z,13.40
2023-05-04T02:14:10.090Z,13.63
2023-05-04T02:19:12.872Z,18.23
2023-05-04T02:24:14.555Z,16.33
2023-05-04T02:29:16.376Z,15.77
2023-05-04T02:34:20.497Z,13.00
2023-05-04T02:39:24.645Z,15.63
2023-05-04T02:44:29.103Z,16.93
2023-05-04T02:49:33.069Z,15.33
2023-05-04T02:54:34.931Z,16.63
2023-05-04T02:59:38.922Z,14.13
2023-05-04T03:04:40.729Z,15.50
2023-05-04T03:09:48.049Z,16.73
2023-05-04T03:14:52.152Z,16.37
2023-05-04T03:19:57.147Z,17.97
2023-05-04T03:25:00.482Z,21.40
2023-05-04T03:30:08.658Z,22.63
2023-05-04T03:35:12.790Z,19.90
2023-05-04T03:40:22.441Z,18.70
2023-05-04T03:45:28.484Z,16.20
2023-05-04T03:50:32.007Z,19.07
2023-05-04T03:55:33.811Z,20.80
2023-05-04T04:00:35.732Z,16.90
2023-05-04T04:05:45.323Z,20.20
2023-05-04T04:10:49.320Z,21.17
2023-05-04T04:15:53.640Z,17.97
2023-05-04T04:20:55.532Z,17.40
2023-05-04T04:25:57.683Z,25.27
2023-05-04T04:30:59.914Z,17.67
2023-05-04T04:36:04.071Z,19.60
2023-05-04T04:41:05.891Z,16.40
2023-05-04T04:46:12.693Z,18.80
2023-05-04T04:51:17.382Z,19.03
2023-05-04T04:56:21.629Z,17.47
2023-05-04T05:01:27.301Z,20.00
2023-05-04T05:06:29.125Z,18.33
2023-05-04T05:11:30.809Z,15.77
2023-05-04T05:16:32.796Z,16.97
2023-05-04T05:21:36.556Z,16.23
2023-05-04T05:26:38.465Z,14.43
2023-05-04T05:31:42.699Z,15.13
2023-05-04T05:36:44.764Z,15.60
2023-05-04T05:41:48.508Z,15.50
2023-05-04T05:46:50.235Z,14.93
2023-05-04T05:51:52.362Z,11.83
2023-05-04T05:56:54.112Z,17.67
2023-05-04T06:01:56.121Z,18.87
2023-05-04T06:07:00.149Z,13.27
2023-05-04T06:12:12.149Z,10.40
2023-05-04T06:17:17.428Z,14.90
2023-05-04T06:22:19.103Z,15.03
2023-05-04T06:27:24.205Z,17.00
2023-05-04T06:32:26.424Z,11.60
2023-05-04T06:37:35.438Z,19.93
2023-05-04T06:42:40.121Z,10.43
2023-05-04T06:47:44.062Z,10.40
2023-05-04T06:52:46.457Z,13.53
2023-05-04T06:57:48.199Z,12.90
2023-05-04T07:02:54.550Z,13.97
2023-05-04T07:07:59.057Z,13.20
2023-05-04T07:13:03.489Z,9.53
2023-05-04T07:18:07.647Z,8.83
2023-05-04T07:23:09.332Z,10.67
2023-05-04T07:28:11.191Z,15.10
2023-05-04T07:33:13.760Z,12.73
2023-05-04T07:38:15.657Z,13.27
2023-05-04T07:43:17.465Z,12.30
2023-05-04T07:48:19.728Z,12.77
2023-05-04T07:53:25.602Z,8.55
2023-05-04T07:58:30.326Z,14.88
2023-05-04T08:03:32.311Z,18.30
2023-05-04T08:08:36.338Z,14.85
2023-05-04T08:13:38.047Z,9.55
2023-05-04T08:18:42.117Z,9.07
2023-05-04T08:23:44.102Z,9.40
2023-05-04T08:28:48.941Z,9.57
2023-05-04T08:33:51.625Z,11.43
2023-05-04T08:38:53.726Z,10.88
2023-05-04T08:44:03.693Z,7.93
2023-05-04T08:49:07.807Z,9.07
2023-05-04T08:54:16.289Z,11.77
2023-05-04T08:59:22.443Z,13.00
2023-05-04T09:04:25.524Z,10.35
2023-05-04T09:09:32.249Z,7.40
2023-05-04T09:14:35.841Z,12.82
2023-05-04T09:19:38.939Z,11.80
2023-05-04T09:24:43.587Z,11.20
2023-05-04T09:29:53.567Z,9.18
2023-05-04T09:34:57.805Z,10.60
2023-05-04T09:39:59.655Z,9.60
2023-05-04T09:45:05.817Z,9.45
2023-05-04T09:50:13.035Z,10.25
2023-05-04T09:55:16.346Z,7.25
2023-05-04T10:00:20.525Z,7.95
2023-05-04T10:05:28.593Z,7.68
2023-05-04T10:10:33.792Z,8.50
2023-05-04T10:15:53.132Z,13.65
2023-05-04T10:21:16.560Z,9.07
2023-05-04T10:26:47.728Z,6.30
2023-05-04T10:31:49.697Z,11.13
2023-05-04T10:36:53.677Z,9.88
2023-05-04T10:41:59.238Z,7.20
2023-05-04T10:47:02.011Z,10.65
2023-05-04T10:52:16.268Z,6.68
2023-05-04T10:57:18.283Z,7.28
2023-05-04T11:02:24.400Z,7.20
2023-05-04T11:07:37.771Z,11.27
2023-05-04T11:12:39.753Z,11.27
2023-05-04T11:17:54.410Z,6.88
2023-05-04T11:22:56.225Z,13.02
2023-05-04T11:28:01.483Z,6.13
2023-05-04T11:33:05.280Z,7.95
2023-05-04T11:38:09.947Z,7.85
2023-05-04T11:43:12.661Z,9.63
2023-05-04T11:48:16.563Z,8.32
2023-05-04T11:53:23.313Z,8.18
2023-05-04T11:58:25.743Z,10.27
2023-05-04T12:03:43.238Z,9.43
2023-05-04T12:09:01.909Z,9.52
2023-05-04T12:14:03.621Z,7.55
2023-05-04T12:19:10.987Z,9.85
2023-05-04T12:24:13.215Z,5.28
2023-05-04T12:29:17.215Z,7.00
2023-05-04T12:34:18.917Z,7.85
2023-05-04T12:39:21.045Z,7.40
2023-05-04T12:44:25.622Z,6.75
2023-05-04T12:49:27.486Z,6.72
2023-05-04T12:54:29.387Z,5.57
2023-05-04T12:59:35.863Z,7.20
2023-05-04T13:04:37.736Z,5.10
2023-05-04T13:09:40.030Z,8.45
2023-05-04T13:14:41.724Z,5.68
2023-05-04T13:19:43.406Z,9.02
2023-05-04T13:24:47.396Z,7.60
2023-05-04T13:29:54.048Z,5.85
2023-05-04T13:34:58.198Z,5.20
2023-05-04T13:40:02.000Z,7.85
2023-05-04T13:45:07.083Z,6.75
2023-05-04T13:50:11.389Z,4.15
2023-05-04T13:55:16.826Z,9.23
2023-05-04T14:00:18.826Z,6.13
2023-05-04T14:05:20.693Z,8.25
2023-05-04T14:10:22.516Z,6.18
2023-05-04T14:15:27.684Z,6.55
2023-05-04T14:20:29.488Z,7.50
2023-05-04T14:25:35.918Z,5.85
2023-05-04T14:30:37.654Z,4.45
2023-05-04T14:35:43.676Z,5.40
2023-05-04T14:40:48.350Z,7.85
2023-05-04T14:45:51.241Z,8.85
2023-05-04T14:50:56.707Z,7.53
2023-05-04T14:56:01.066Z,5.28
2023-05-04T15:01:06.093Z,7.82
2023-05-04T15:06:12.551Z,5.22
2023-05-04T15:11:19.392Z,5.25
2023-05-04T15:16:30.019Z,7.13
2023-05-04T15:21:34.262Z,8.88
2023-05-04T15:26:36.126Z,7.72
2023-05-04T15:31:38.559Z,5.47
2023-05-04T15:36:40.536Z,8.75
2023-05-04T15:41:42.988Z,10.27
2023-05-04T15:46:46.927Z,8.93
2023-05-04T15:51:48.658Z,9.32
2023-05-04T15:56:53.106Z,7.90
2023-05-04T16:01:57.831Z,7.25
2023-05-04T16:06:59.570Z,8.90
2023-05-04T16:12:05.411Z,5.70
2023-05-04T16:17:07.516Z,8.33
2023-05-04T16:22:12.228Z,10.00
2023-05-04T16:27:18.876Z,8.35
2023-05-04T16:32:21.279Z,7.60
2023-05-04T16:37:25.358Z,6.05
2023-05-04T16:42:29.119Z,8.98
2023-05-04T16:47:31.128Z,7.53
2023-05-04T16:52:34.957Z,7.57
2023-05-04T16:57:39.030Z,9.40
2023-05-04T17:02:40.884Z,9.63
2023-05-04T17:07:43.630Z,7.78
2023-05-04T17:12:45.440Z,9.95
2023-05-04T17:17:49.689Z,9.02
2023-05-04T17:23:01.769Z,8.05
2023-05-04T17:28:05.961Z,4.95
2023-05-04T17:33:10.021Z,6.35
2023-05-04T17:38:11.753Z,5.68
2023-05-04T17:43:13.506Z,8.82
2023-05-04T17:48:16.328Z,6.47
2023-05-04T17:53:20.276Z,7.70
2023-05-04T17:58:24.993Z,8.55
2023-05-04T18:03:26.931Z,5.57
2023-05-04T18:08:30.811Z,6.28
2023-05-04T18:13:32.585Z,7.00
2023-05-04T18:18:39.044Z,6.18
2023-05-04T18:23:40.885Z,7.28
2023-05-04T18:28:45.306Z,5.32
2023-05-04T18:33:47.211Z,8.27
2023-05-04T18:38:53.308Z,9.05
2023-05-04T18:43:56.161Z,10.47
2023-05-04T18:49:02.737Z,8.98
2023-05-04T18:54:04.623Z,12.70
2023-05-04T18:59:09.558Z,12.35
2023-05-04T19:04:13.582Z,8.80
2023-05-04T19:09:17.946Z,15.00
2023-05-04T19:14:19.780Z,11.90
2023-05-04T19:19:22.217Z,12.88
2023-05-04T19:24:26.321Z,11.45
2023-05-04T19:29:30.233Z,10.23
2023-05-04T19:34:34.198Z,11.90
2023-05-04T19:39:36.646Z,9.55
2023-05-04T19:44:40.995Z,12.48
2023-05-04T19:49:48.004Z,11.82
2023-05-04T19:54:53.623Z,11.25
2023-05-04T19:59:58.630Z,13.70
2023-05-04T20:05:03.256Z,10.60
2023-05-04T20:10:08.792Z,11.80
2023-05-04T20:15:15.803Z,17.90
2023-05-04T20:20:20.361Z,12.73
2023-05-04T20:25:22.867Z,13.18
2023-05-04T20:30:29.075Z,16.88
2023-05-04T20:35:31.035Z,14.55
2023-05-04T20:40:37.640Z,9.38
2023-05-04T20:45:39.363Z,14.23
2023-05-04T20:50:41.117Z,12.07
2023-05-04T20:55:43.621Z,10.75
2023-05-04T21:00:45.257Z,14.45
2023-05-04T21:05:51.624Z,19.20
2023-05-04T21:10:56.723Z,16.58
2023-05-04T21:15:59.814Z,17.63
2023-05-04T21:21:04.987Z,15.15
2023-05-04T21:26:09.190Z,16.25
2023-05-04T21:31:16.120Z,13.55
2023-05-04T21:36:20.151Z,13.40
2023-05-04T21:41:27.007Z,16.25
2023-05-04T21:46:28.711Z,15.70
2023-05-04T21:51:30.615Z,13.00
2023-05-04T21:56:32.571Z,12.80
2023-05-04T22:01:34.246Z,19.92
2023-05-04T22:06:36.745Z,9.32
2023-05-04T22:11:41.482Z,11.65
2023-05-04T22:16:43.697Z,13.27
2023-05-04T22:21:48.321Z,11.15
2023-05-04T22:26:52.375Z,12.05
2023-05-04T22:31:57.062Z,13.13
2023-05-04T22:37:03.424Z,13.20
2023-05-04T22:42:09.744Z,16.42
2023-05-04T22:47:11.752Z,9.45
2023-05-04T22:52:13.459Z,18.65
2023-05-04T22:57:19.911Z,13.70
2023-05-04T23:02:24.037Z,12.02
2023-05-04T23:07:25.988Z,12.23
2023-05-04T23:12:28.107Z,11.98
2023-05-04T23:17:33.921Z,11.80
2023-05-04T23:22:37.850Z,11.40
2023-05-04T23:27:42.099Z,14.82
2023-05-04T23:32:43.908Z,11.60
2023-05-04T23:37:45.622Z,16.85
2023-05-04T23:42:52.833Z,17.70
2023-05-04T23:47:59.348Z,13.35
2023-05-04T23:53:03.295Z,10.68
2023-05-04T23:58:05.029Z,11.75
